Cosco Kaohsiung — VREM3 — position and weather

sailwx.info

Track history (hours):
 
Tides and Currents Weather Stations Pressure Air Temp Water Temp Dewpoint Dewpoint Depression Visibility Wind Speed Wind Dir Waves Ship Positions

Cosco Kaohsiung

Last reported at 2014-Aug-21 10:22 UTC. Time now 2014-Aug-22 17:45 UTC.
Position N 22°43' E 116°50'.

Length 349 m; draft 12.7 m.

Type: Ship (hazmat cat A). MMSI: 477136800.

Date/timePositionNaut miles runAvg speedWind from/ knotsBaromVisibWave heightAir tempDewpointWater temp
2014-Aug-21 10:22N 22°43' E 116°50'8 9.6
2014-Aug-21 09:32N 22°47' E 116°57'10 9.8
2014-Aug-21 08:33N 22°53' E 117°05'1110.1
2014-Aug-21 07:30N 23°00' E 117°13'7111.9
2014-Aug-21 01:32N 23°45' E 118°14'1514.3
2014-Aug-21 00:28N 23°55' E 118°27'4013.6
2014-Aug-20 21:30N 24°20' E 119°01'1313.4
2014-Aug-20 20:30N 24°28' E 119°13'3012.5
2014-Aug-20 18:06N 24°49' E 119°36'712.5
2014-Aug-20 17:33N 24°54' E 119°42'29814.8
2014-Aug-19 21:21N 29°12' E 122°31'1417.1
2014-Aug-19 20:33N 29°25' E 122°29'1616.2
2014-Aug-19 19:33N 29°41' E 122°25'1211.8
2014-Aug-19 18:33N 29°48' E 122°15'1110.5
2014-Aug-19 17:33N 29°54' E 122°05'1 1.4
2014-Aug-19 16:33N 29°53' E 122°03'0 0.0
2014-Aug-19 15:33N 29°53' E 122°03'0 0.1
2014-Aug-19 14:33N 29°53' E 122°03'0 0.1
2014-Aug-19 13:33N 29°53' E 122°03'0 0.0
2014-Aug-19 12:33N 29°53' E 122°03'0 0.1
2014-Aug-19 11:33N 29°53' E 122°03'0 0.0
2014-Aug-19 10:21N 29°53' E 122°03'0 0.0
2014-Aug-19 09:33N 29°53' E 122°03'0 0.0
2014-Aug-19 08:33N 29°53' E 122°03'0 0.0
2014-Aug-19 07:03N 29°53' E 122°03'0 0.0
2014-Aug-19 06:33N 29°53' E 122°03'0 0.0
2014-Aug-19 05:33N 29°53' E 122°03'0 0.0
2014-Aug-19 04:33N 29°53' E 122°03'1 1.5
2014-Aug-19 03:33N 29°55' E 122°04'1110.8
2014-Aug-19 02:33N 29°49' E 122°14'1212.4
2014-Aug-19 01:33N 29°44' E 122°27'1817.6
2014-Aug-19 00:34N 29°53' E 122°45'2416.2
2014-Aug-18 23:04N 30°15' E 122°54'918.7
2014-Aug-18 22:33N 30°21' E 122°46'1817.7
2014-Aug-18 21:33N 30°31' E 122°28'1515.3
2014-Aug-18 20:34N 30°34' E 122°11'7 2.3
2014-Aug-18 17:20N 30°37' E 122°04'0 0.0
2014-Aug-18 13:26N 30°37' E 122°04'0 0.0
2014-Aug-18 04:14N 30°37' E 122°04'0 0.0
2014-Aug-18 00:26N 30°37' E 122°04'1 0.1
2014-Aug-17 18:34N 30°37' E 122°03'7 6.9
2014-Aug-17 17:33N 30°34' E 122°10'9 9.1
2014-Aug-17 16:33N 30°33' E 122°21'5 4.7
2014-Aug-17 15:33N 30°32' E 122°26'1110.8
2014-Aug-17 14:33N 30°30' E 122°38'3 3.1
2014-Aug-17 13:29N 30°27' E 122°40'0 0.0
2014-Aug-17 12:31N 30°27' E 122°40'0 0.1
2014-Aug-17 11:31N 30°27' E 122°40'0 0.1
2014-Aug-17 10:31N 30°27' E 122°40'0 0.1
2014-Aug-17 09:31N 30°27' E 122°40'0 0.2
2014-Aug-17 08:31N 30°27' E 122°40'0 0.2
2014-Aug-17 07:31N 30°27' E 122°39'0 0.1
2014-Aug-17 06:25N 30°27' E 122°39'3 3.4
2014-Aug-17 05:33N 30°30' E 122°41'1111.3
2014-Aug-17 04:33N 30°38' E 122°50'8 8.4
2014-Aug-17 03:33N 30°45' E 122°55'1211.6
2014-Aug-17 02:33N 30°57' E 122°56'1311.4
2014-Aug-17 01:24N 31°10' E 122°58'31311.2
2014-Aug-15 21:22N 35°58' E 120°33'1214.5
2014-Aug-15 20:33N 36°01' E 120°19'2 0.1
2014-Aug-15 02:33N 36°02' E 120°16'9 9.3
2014-Aug-15 01:33N 36°00' E 120°28'1111.2
2014-Aug-15 00:33N 35°58' E 120°41'  
Track history (hours):
 
Tides and Currents Weather Stations Pressure Air Temp Water Temp Dewpoint Dewpoint Depression Visibility Wind Speed Wind Dir Waves Ship Positions

Cosco Kaohsiung

Last reported at 2014-Aug-21 10:22 UTC. Time now 2014-Aug-22 17:45 UTC.
Position N 22°43' E 116°50'.

Length 349 m; draft 12.7 m.

Type: Ship (hazmat cat A). MMSI: 477136800.

Date/timePositionNaut miles runAvg speedWind from/ knotsBaromVisibWave heightAir tempDewpointWater temp
2014-Aug-21 10:22N 22°43' E 116°50'8 9.6
2014-Aug-21 09:32N 22°47' E 116°57'10 9.8
2014-Aug-21 08:33N 22°53' E 117°05'1110.1
2014-Aug-21 07:30N 23°00' E 117°13'7111.9
2014-Aug-21 01:32N 23°45' E 118°14'1514.3
2014-Aug-21 00:28N 23°55' E 118°27'4013.6
2014-Aug-20 21:30N 24°20' E 119°01'1313.4
2014-Aug-20 20:30N 24°28' E 119°13'3012.5
2014-Aug-20 18:06N 24°49' E 119°36'712.5
2014-Aug-20 17:33N 24°54' E 119°42'29814.8
2014-Aug-19 21:21N 29°12' E 122°31'1417.1
2014-Aug-19 20:33N 29°25' E 122°29'1616.2
2014-Aug-19 19:33N 29°41' E 122°25'1211.8
2014-Aug-19 18:33N 29°48' E 122°15'1110.5
2014-Aug-19 17:33N 29°54' E 122°05'1 1.4
2014-Aug-19 16:33N 29°53' E 122°03'0 0.0
2014-Aug-19 15:33N 29°53' E 122°03'0 0.1
2014-Aug-19 14:33N 29°53' E 122°03'0 0.1
2014-Aug-19 13:33N 29°53' E 122°03'0 0.0
2014-Aug-19 12:33N 29°53' E 122°03'0 0.1
2014-Aug-19 11:33N 29°53' E 122°03'0 0.0
2014-Aug-19 10:21N 29°53' E 122°03'0 0.0
2014-Aug-19 09:33N 29°53' E 122°03'0 0.0
2014-Aug-19 08:33N 29°53' E 122°03'0 0.0
2014-Aug-19 07:03N 29°53' E 122°03'0 0.0
2014-Aug-19 06:33N 29°53' E 122°03'0 0.0
2014-Aug-19 05:33N 29°53' E 122°03'0 0.0
2014-Aug-19 04:33N 29°53' E 122°03'1 1.5
2014-Aug-19 03:33N 29°55' E 122°04'1110.8
2014-Aug-19 02:33N 29°49' E 122°14'1212.4
2014-Aug-19 01:33N 29°44' E 122°27'1817.6
2014-Aug-19 00:34N 29°53' E 122°45'2416.2
2014-Aug-18 23:04N 30°15' E 122°54'918.7
2014-Aug-18 22:33N 30°21' E 122°46'1817.7
2014-Aug-18 21:33N 30°31' E 122°28'1515.3
2014-Aug-18 20:34N 30°34' E 122°11'7 2.3
2014-Aug-18 17:20N 30°37' E 122°04'0 0.0
2014-Aug-18 13:26N 30°37' E 122°04'0 0.0
2014-Aug-18 04:14N 30°37' E 122°04'0 0.0
2014-Aug-18 00:26N 30°37' E 122°04'1 0.1
2014-Aug-17 18:34N 30°37' E 122°03'7 6.9
2014-Aug-17 17:33N 30°34' E 122°10'9 9.1
2014-Aug-17 16:33N 30°33' E 122°21'5 4.7
2014-Aug-17 15:33N 30°32' E 122°26'1110.8
2014-Aug-17 14:33N 30°30' E 122°38'3 3.1
2014-Aug-17 13:29N 30°27' E 122°40'0 0.0
2014-Aug-17 12:31N 30°27' E 122°40'0 0.1
2014-Aug-17 11:31N 30°27' E 122°40'0 0.1
2014-Aug-17 10:31N 30°27' E 122°40'0 0.1
2014-Aug-17 09:31N 30°27' E 122°40'0 0.2
2014-Aug-17 08:31N 30°27' E 122°40'0 0.2
2014-Aug-17 07:31N 30°27' E 122°39'0 0.1
2014-Aug-17 06:25N 30°27' E 122°39'3 3.4
2014-Aug-17 05:33N 30°30' E 122°41'1111.3
2014-Aug-17 04:33N 30°38' E 122°50'8 8.4
2014-Aug-17 03:33N 30°45' E 122°55'1211.6
2014-Aug-17 02:33N 30°57' E 122°56'1311.4
2014-Aug-17 01:24N 31°10' E 122°58'31311.2
2014-Aug-15 21:22N 35°58' E 120°33'1214.5
2014-Aug-15 20:33N 36°01' E 120°19'2 0.1
2014-Aug-15 02:33N 36°02' E 120°16'9 9.3
2014-Aug-15 01:33N 36°00' E 120°28'1111.2
2014-Aug-15 00:33N 35°58' E 120°41'  

Dump ship's entire track history